createdAt,value
2018-07-23T00:00:10.104Z,1009.61
2018-07-23T00:00:50.681Z,1009.62
2018-07-23T00:01:31.252Z,1009.58
2018-07-23T00:02:11.814Z,1009.59
2018-07-23T00:02:52.378Z,1009.6
2018-07-23T00:03:32.940Z,1009.63
2018-07-23T00:04:13.511Z,1009.63
2018-07-23T00:04:54.076Z,1009.59
2018-07-23T00:05:34.644Z,1009.63
2018-07-23T00:06:15.227Z,1009.63
2018-07-23T00:06:55.786Z,1009.65
2018-07-23T00:07:36.348Z,1009.66
2018-07-23T00:08:16.921Z,1009.62
2018-07-23T00:08:57.464Z,1009.64
2018-07-23T00:09:38.033Z,1009.63
2018-07-23T00:10:18.619Z,1009.68
2018-07-23T00:10:59.175Z,1009.64
2018-07-23T00:11:39.730Z,1009.61
2018-07-23T00:12:20.300Z,1009.64
2018-07-23T00:13:00.886Z,1009.63
2018-07-23T00:13:41.419Z,1009.64
2018-07-23T00:14:21.998Z,1009.61
2018-07-23T00:15:02.570Z,1009.62
2018-07-23T00:15:43.134Z,1009.62
2018-07-23T00:16:23.697Z,1009.61
2018-07-23T00:17:04.262Z,1009.63
2018-07-23T00:17:44.861Z,1009.64
2018-07-23T00:18:25.434Z,1009.66
2018-07-23T00:19:05.996Z,1009.62
2018-07-23T00:19:46.558Z,1009.63
2018-07-23T00:20:27.120Z,1009.63
2018-07-23T00:21:07.666Z,1009.62
2018-07-23T00:21:48.231Z,1009.66
2018-07-23T00:22:28.792Z,1009.64
2018-07-23T00:23:09.368Z,1009.61
2018-07-23T00:23:49.950Z,1009.63
2018-07-23T00:24:30.499Z,1009.61
2018-07-23T00:25:11.056Z,1009.62
2018-07-23T00:25:51.633Z,1009.61
2018-07-23T00:26:32.186Z,1009.62
2018-07-23T00:27:12.766Z,1009.59
2018-07-23T00:27:53.335Z,1009.63
2018-07-23T00:28:33.885Z,1009.62
2018-07-23T00:29:14.455Z,1009.58
2018-07-23T00:29:55.036Z,1009.58
2018-07-23T00:30:35.620Z,1009.62
2018-07-23T00:31:16.183Z,1009.59
2018-07-23T00:31:56.747Z,1009.6
2018-07-23T00:32:37.320Z,1009.56
2018-07-23T00:33:17.872Z,1009.6
2018-07-23T00:33:58.455Z,1009.59
2018-07-23T00:34:39.026Z,1009.58
2018-07-23T00:35:19.597Z,1009.61
2018-07-23T00:36:00.161Z,1009.6
2018-07-23T00:36:40.783Z,1009.58
2018-07-23T00:37:21.350Z,1009.58
2018-07-23T00:38:01.920Z,1009.6
2018-07-23T00:38:42.492Z,1009.57
2018-07-23T00:39:23.056Z,1009.57
2018-07-23T00:40:03.620Z,1009.62
2018-07-23T00:40:44.198Z,1009.61
2018-07-23T00:41:24.755Z,1009.63
2018-07-23T00:42:05.319Z,1009.6
2018-07-23T00:42:45.903Z,1009.58
2018-07-23T00:43:26.473Z,1009.58
2018-07-23T00:44:07.039Z,1009.58
2018-07-23T00:44:47.589Z,1009.61
2018-07-23T00:45:28.164Z,1009.6
2018-07-23T00:46:08.751Z,1009.6
2018-07-23T00:46:49.318Z,1009.6
2018-07-23T00:47:29.892Z,1009.61
2018-07-23T00:48:10.462Z,1009.62
2018-07-23T00:48:51.026Z,1009.58
2018-07-23T00:49:31.600Z,1009.61
2018-07-23T00:50:12.179Z,1009.59
2018-07-23T00:50:52.755Z,1009.59
2018-07-23T00:51:33.385Z,1009.57
2018-07-23T00:52:13.949Z,1009.6
2018-07-23T00:52:54.532Z,1009.57
2018-07-23T00:53:35.096Z,1009.56
2018-07-23T00:54:15.657Z,1009.59
2018-07-23T00:54:56.224Z,1009.58
2018-07-23T00:55:36.790Z,1009.58
2018-07-23T00:56:17.344Z,1009.59
2018-07-23T00:56:57.896Z,1009.61
2018-07-23T00:57:38.471Z,1009.6
2018-07-23T00:58:19.040Z,1009.61
2018-07-23T00:58:59.614Z,1009.6
2018-07-23T00:59:40.186Z,1009.58
2018-07-23T01:00:20.746Z,1009.55
2018-07-23T01:01:01.330Z,1009.61
2018-07-23T01:01:41.912Z,1009.6
2018-07-23T01:02:22.493Z,1009.61
2018-07-23T01:03:03.054Z,1009.6
2018-07-23T01:03:43.606Z,1009.58
2018-07-23T01:04:24.174Z,1009.6
2018-07-23T01:05:04.780Z,1009.62
2018-07-23T01:05:45.352Z,1009.65
2018-07-23T01:06:25.953Z,1009.63
2018-07-23T01:07:06.504Z,1009.65
2018-07-23T01:07:47.061Z,1009.67
2018-07-23T01:08:27.629Z,1009.65
2018-07-23T01:09:08.205Z,1009.64
2018-07-23T01:09:48.747Z,1009.68
2018-07-23T01:10:29.316Z,1009.69
2018-07-23T01:11:09.887Z,1009.66
2018-07-23T01:11:50.448Z,1009.71
2018-07-23T01:12:31.014Z,1009.69
2018-07-23T01:13:11.584Z,1009.71
2018-07-23T01:13:52.160Z,1009.74
2018-07-23T01:14:32.695Z,1009.7
2018-07-23T01:15:13.251Z,1009.7
2018-07-23T01:15:53.816Z,1009.72
2018-07-23T01:16:34.369Z,1009.71
2018-07-23T01:17:14.920Z,1009.72
2018-07-23T01:17:55.493Z,1009.71
2018-07-23T01:18:36.065Z,1009.71
2018-07-23T01:19:16.668Z,1009.72
2018-07-23T01:19:57.238Z,1009.74
2018-07-23T01:20:37.780Z,1009.71
2018-07-23T01:21:18.333Z,1009.73
2018-07-23T01:21:58.906Z,1009.69
2018-07-23T01:22:39.484Z,1009.74
2018-07-23T01:23:20.054Z,1009.71
2018-07-23T01:24:00.620Z,1009.71
2018-07-23T01:24:41.172Z,1009.74
2018-07-23T01:25:21.734Z,1009.74
2018-07-23T01:26:02.283Z,1009.73
2018-07-23T01:26:42.825Z,1009.72
2018-07-23T01:27:23.389Z,1009.77
2018-07-23T01:28:03.965Z,1009.73
2018-07-23T01:28:44.556Z,1009.73
2018-07-23T01:29:25.122Z,1009.75
2018-07-23T01:30:05.688Z,1009.77
2018-07-23T01:30:46.229Z,1009.74
2018-07-23T01:31:26.794Z,1009.77
2018-07-23T01:32:07.345Z,1009.76
2018-07-23T01:32:47.900Z,1009.77
2018-07-23T01:33:28.444Z,1009.74
2018-07-23T01:34:09.000Z,1009.77
2018-07-23T01:34:49.551Z,1009.73
2018-07-23T01:35:30.125Z,1009.75
2018-07-23T01:36:10.698Z,1009.7
2018-07-23T01:36:51.258Z,1009.73
2018-07-23T01:37:31.826Z,1009.72
2018-07-23T01:38:12.398Z,1009.69
2018-07-23T01:38:52.991Z,1009.71
2018-07-23T01:39:33.538Z,1009.74
2018-07-23T01:40:14.099Z,1009.74
2018-07-23T01:40:54.670Z,1009.71
2018-07-23T01:41:35.250Z,1009.73
2018-07-23T01:42:15.803Z,1009.74
2018-07-23T01:42:56.371Z,1009.76
2018-07-23T01:43:36.945Z,1009.76
2018-07-23T01:44:17.507Z,1009.77
2018-07-23T01:44:58.066Z,1009.75
2018-07-23T01:45:38.640Z,1009.76
2018-07-23T01:46:19.208Z,1009.78
2018-07-23T01:46:59.766Z,1009.79
2018-07-23T01:47:40.336Z,1009.85
2018-07-23T01:48:20.883Z,1009.79
2018-07-23T01:49:01.446Z,1009.79
2018-07-23T01:49:41.994Z,1009.81
2018-07-23T01:50:22.594Z,1009.81
2018-07-23T01:51:03.164Z,1009.84
2018-07-23T01:51:43.716Z,1009.8
2018-07-23T01:52:24.258Z,1009.82
2018-07-23T01:53:04.836Z,1009.81
2018-07-23T01:53:45.411Z,1009.8
2018-07-23T01:54:25.977Z,1009.8
2018-07-23T01:55:06.549Z,1009.81
2018-07-23T01:55:47.126Z,1009.81
2018-07-23T01:56:27.674Z,1009.81
2018-07-23T01:57:08.234Z,1009.78
2018-07-23T01:57:48.797Z,1009.78
2018-07-23T01:58:29.380Z,1009.81
2018-07-23T01:59:09.948Z,1009.8
2018-07-23T01:59:50.519Z,1009.78
2018-07-23T02:00:31.086Z,1009.8
2018-07-23T02:01:11.656Z,1009.8
2018-07-23T02:01:52.200Z,1009.78
2018-07-23T02:02:32.777Z,1009.78
2018-07-23T02:03:13.348Z,1009.82
2018-07-23T02:03:53.944Z,1009.84
2018-07-23T02:04:34.530Z,1009.84
2018-07-23T02:05:15.096Z,1009.83
2018-07-23T02:05:55.669Z,1009.84
2018-07-23T02:06:36.233Z,1009.86
2018-07-23T02:07:16.931Z,1009.89
2018-07-23T02:07:57.528Z,1009.86
2018-07-23T02:08:38.189Z,1009.87
2018-07-23T02:09:18.787Z,1009.8
2018-07-23T02:09:59.441Z,1009.84
2018-07-23T02:10:40.008Z,1009.83
2018-07-23T02:11:20.750Z,1009.84
2018-07-23T02:12:01.294Z,1009.9
2018-07-23T02:12:41.870Z,1009.83
2018-07-23T02:13:22.462Z,1009.86
2018-07-23T02:14:04.077Z,1009.85
2018-07-23T02:14:44.646Z,1009.87
2018-07-23T02:15:25.207Z,1009.87
2018-07-23T02:16:05.767Z,1009.86
2018-07-23T02:16:46.319Z,1009.86
2018-07-23T02:17:26.869Z,1009.84
2018-07-23T02:18:07.460Z,1009.88
2018-07-23T02:18:48.012Z,1009.87
2018-07-23T02:19:28.618Z,1009.87
2018-07-23T02:20:09.138Z,1009.87
2018-07-23T02:20:49.716Z,1009.87
2018-07-23T02:21:30.282Z,1009.88
2018-07-23T02:22:10.852Z,1009.91
2018-07-23T02:22:51.400Z,1009.84
2018-07-23T02:23:31.957Z,1009.89
2018-07-23T02:24:12.530Z,1009.87
2018-07-23T02:24:53.134Z,1009.85
2018-07-23T02:25:33.703Z,1009.86
2018-07-23T02:26:14.266Z,1009.87
2018-07-23T02:26:54.856Z,1009.83
2018-07-23T02:27:35.426Z,1009.85
2018-07-23T02:28:15.989Z,1009.86
2018-07-23T02:28:56.554Z,1009.81
2018-07-23T02:29:37.111Z,1009.9
2018-07-23T02:30:17.685Z,1009.86
2018-07-23T02:30:58.264Z,1009.89
2018-07-23T02:31:38.835Z,1009.87
2018-07-23T02:32:19.392Z,1009.88
2018-07-23T02:32:59.962Z,1009.91
2018-07-23T02:33:40.521Z,1009.91
2018-07-23T02:34:21.078Z,1009.88
2018-07-23T02:35:01.650Z,1009.92
2018-07-23T02:35:42.238Z,1009.89
2018-07-23T02:36:22.807Z,1009.9
2018-07-23T02:37:03.370Z,1009.91
2018-07-23T02:37:43.931Z,1009.88
2018-07-23T02:38:24.498Z,1009.87
2018-07-23T02:39:05.074Z,1009.88
2018-07-23T02:39:45.623Z,1009.89
2018-07-23T02:40:26.196Z,1009.86
2018-07-23T02:41:06.760Z,1009.9
2018-07-23T02:41:47.332Z,1009.88
2018-07-23T02:42:27.906Z,1009.89
2018-07-23T02:43:08.475Z,1009.88
2018-07-23T02:43:49.035Z,1009.9
2018-07-23T02:44:29.601Z,1009.92
2018-07-23T02:45:10.173Z,1009.96
2018-07-23T02:45:50.725Z,1009.94
2018-07-23T02:46:31.332Z,1009.93
2018-07-23T02:47:11.907Z,1009.96
2018-07-23T02:47:52.492Z,1009.94
2018-07-23T02:48:33.043Z,1009.98
2018-07-23T02:49:13.594Z,1009.95
2018-07-23T02:49:54.182Z,1010
2018-07-23T02:50:34.751Z,1010
2018-07-23T02:51:15.305Z,1009.98
2018-07-23T02:51:55.872Z,1010.02
2018-07-23T02:52:36.445Z,1010.02
2018-07-23T02:53:17.019Z,1009.99
2018-07-23T02:53:57.587Z,1010.01
2018-07-23T02:54:38.163Z,1010.02
2018-07-23T02:55:18.724Z,1010.04
2018-07-23T02:55:59.286Z,1010.07
2018-07-23T02:56:39.846Z,1010.03
2018-07-23T02:57:20.424Z,1010.06
2018-07-23T02:58:01.013Z,1010.06
2018-07-23T02:58:41.594Z,1010.08
2018-07-23T02:59:22.165Z,1010.07
2018-07-23T03:00:02.748Z,1010.07
2018-07-23T03:00:43.317Z,1010.11
2018-07-23T03:01:23.887Z,1010.09
2018-07-23T03:02:04.455Z,1010.07
2018-07-23T03:02:45.028Z,1010.06
2018-07-23T03:03:25.588Z,1010.1
2018-07-23T03:04:06.154Z,1010.09
2018-07-23T03:04:46.724Z,1010.1
2018-07-23T03:05:27.293Z,1010.07
2018-07-23T03:06:07.864Z,1010.09
2018-07-23T03:06:48.431Z,1010.07
2018-07-23T03:07:29.004Z,1010.1
2018-07-23T03:08:09.576Z,1010.04
2018-07-23T03:08:50.137Z,1010.01
2018-07-23T03:09:30.701Z,1010.04
2018-07-23T03:10:11.266Z,1010.01
2018-07-23T03:10:51.823Z,1010.05
2018-07-23T03:11:32.377Z,1010.06
2018-07-23T03:12:12.956Z,1009.99
2018-07-23T03:12:53.526Z,1010.07
2018-07-23T03:13:34.103Z,1010
2018-07-23T03:14:14.657Z,1010.04
2018-07-23T03:14:55.231Z,1010.09
2018-07-23T03:15:35.777Z,1010.06
2018-07-23T03:16:16.333Z,1010.07
2018-07-23T03:16:56.901Z,1010.03
2018-07-23T03:17:37.484Z,1010.06
2018-07-23T03:18:18.048Z,1010.04
2018-07-23T03:18:58.629Z,1010.06
2018-07-23T03:19:39.189Z,1010.03
2018-07-23T03:20:19.761Z,1010.08
2018-07-23T03:21:00.340Z,1010.1
2018-07-23T03:21:40.962Z,1010.1
2018-07-23T03:22:21.465Z,1010.11
2018-07-23T03:23:02.021Z,1010.12
2018-07-23T03:23:42.589Z,1010.08
2018-07-23T03:24:23.151Z,1010.1
2018-07-23T03:25:03.722Z,1010.13
2018-07-23T03:25:44.287Z,1010.07
2018-07-23T03:26:24.857Z,1010.13
2018-07-23T03:27:05.428Z,1010.12
2018-07-23T03:27:45.993Z,1010.15
2018-07-23T03:28:26.548Z,1010.12
2018-07-23T03:29:07.115Z,1010.13
2018-07-23T03:29:47.691Z,1010.1
2018-07-23T03:30:28.278Z,1010.11
2018-07-23T03:31:08.840Z,1010.1
2018-07-23T03:31:49.421Z,1010.14
2018-07-23T03:32:29.975Z,1010.11
2018-07-23T03:33:10.549Z,1010.13
2018-07-23T03:33:51.103Z,1010.11
2018-07-23T03:34:31.674Z,1010.1
2018-07-23T03:35:12.239Z,1010.13
2018-07-23T03:35:52.804Z,1010.15
2018-07-23T03:36:33.385Z,1010.14
2018-07-23T03:37:13.953Z,1010.14
2018-07-23T03:37:54.529Z,1010.13
2018-07-23T03:38:35.097Z,1010.15
2018-07-23T03:39:15.659Z,1010.14
2018-07-23T03:39:56.220Z,1010.14
2018-07-23T03:40:36.797Z,1010.13
2018-07-23T03:41:17.360Z,1010.13
2018-07-23T03:41:57.932Z,1010.13
2018-07-23T03:42:38.517Z,1010.14
2018-07-23T03:43:19.047Z,1010.12
2018-07-23T03:43:59.620Z,1010.09
2018-07-23T03:44:40.175Z,1010.12
2018-07-23T03:45:20.743Z,1010.15
2018-07-23T03:46:01.315Z,1010.15
2018-07-23T03:46:41.895Z,1010.14
2018-07-23T03:47:22.472Z,1010.16
2018-07-23T03:48:03.026Z,1010.14
2018-07-23T03:48:43.585Z,1010.17
2018-07-23T03:49:24.161Z,1010.2
2018-07-23T03:50:04.734Z,1010.2
2018-07-23T03:50:45.292Z,1010.21
2018-07-23T03:51:25.864Z,1010.19
2018-07-23T03:52:06.439Z,1010.19
2018-07-23T03:52:47.017Z,1010.18
2018-07-23T03:53:27.575Z,1010.17
2018-07-23T03:54:08.151Z,1010.18
2018-07-23T03:54:48.702Z,1010.17
2018-07-23T03:55:29.264Z,1010.17
2018-07-23T03:56:09.834Z,1010.18
2018-07-23T03:56:50.398Z,1010.19
2018-07-23T03:57:30.963Z,1010.19
2018-07-23T03:58:11.532Z,1010.2
2018-07-23T03:58:52.109Z,1010.19
2018-07-23T03:59:32.688Z,1010.21
2018-07-23T04:00:13.236Z,1010.19
2018-07-23T04:00:53.795Z,1010.18
2018-07-23T04:01:34.348Z,1010.24
2018-07-23T04:02:14.927Z,1010.26
2018-07-23T04:02:55.487Z,1010.24
2018-07-23T04:03:36.158Z,1010.24
2018-07-23T04:04:16.647Z,1010.25
2018-07-23T04:04:57.203Z,1010.24
2018-07-23T04:05:37.830Z,1010.28
2018-07-23T04:06:18.407Z,1010.26
2018-07-23T04:06:58.958Z,1010.23
2018-07-23T04:07:39.523Z,1010.24
2018-07-23T04:08:20.114Z,1010.24
2018-07-23T04:09:00.673Z,1010.26
2018-07-23T04:09:41.248Z,1010.21
2018-07-23T04:10:21.829Z,1010.28
2018-07-23T04:11:02.809Z,1010.23
2018-07-23T04:11:43.383Z,1010.23
2018-07-23T04:12:23.952Z,1010.2
2018-07-23T04:13:04.515Z,1010.2
2018-07-23T04:13:45.163Z,1010.18
2018-07-23T04:14:25.725Z,1010.19
2018-07-23T04:15:06.307Z,1010.17
2018-07-23T04:15:46.867Z,1010.23
2018-07-23T04:16:27.439Z,1010.24
2018-07-23T04:17:07.995Z,1010.22
2018-07-23T04:17:48.581Z,1010.2
2018-07-23T04:18:29.146Z,1010.23
2018-07-23T04:19:09.705Z,1010.25
2018-07-23T04:19:50.273Z,1010.23
2018-07-23T04:20:30.840Z,1010.27
2018-07-23T04:21:11.438Z,1010.29
2018-07-23T04:21:52.004Z,1010.3
2018-07-23T04:22:32.566Z,1010.29
2018-07-23T04:23:13.124Z,1010.24
2018-07-23T04:23:53.736Z,1010.28
2018-07-23T04:24:34.280Z,1010.26
2018-07-23T04:25:14.846Z,1010.3
2018-07-23T04:25:55.399Z,1010.31
2018-07-23T04:26:35.963Z,1010.33
2018-07-23T04:27:16.541Z,1010.34
2018-07-23T04:27:57.102Z,1010.36
2018-07-23T04:28:37.665Z,1010.41
2018-07-23T04:29:18.241Z,1010.39
2018-07-23T04:29:58.800Z,1010.37
2018-07-23T04:30:39.361Z,1010.43
2018-07-23T04:31:19.918Z,1010.44
2018-07-23T04:32:00.490Z,1010.43
2018-07-23T04:32:41.090Z,1010.44
2018-07-23T04:33:21.658Z,1010.47
2018-07-23T04:34:02.295Z,1010.49
2018-07-23T04:34:42.907Z,1010.49
2018-07-23T04:35:23.503Z,1010.53
2018-07-23T04:36:04.067Z,1010.5
2018-07-23T04:36:44.643Z,1010.48
2018-07-23T04:37:25.200Z,1010.5
2018-07-23T04:38:05.774Z,1010.45
2018-07-23T04:38:46.357Z,1010.52
2018-07-23T04:39:26.893Z,1010.53
2018-07-23T04:40:07.463Z,1010.5
2018-07-23T04:40:48.013Z,1010.51
2018-07-23T04:41:28.600Z,1010.51
2018-07-23T04:42:09.176Z,1010.49
2018-07-23T04:42:49.733Z,1010.51
2018-07-23T04:43:30.297Z,1010.56
2018-07-23T04:44:10.859Z,1010.53
2018-07-23T04:44:51.434Z,1010.55
2018-07-23T04:45:32.013Z,1010.58
2018-07-23T04:46:12.567Z,1010.6
2018-07-23T04:46:53.137Z,1010.6
2018-07-23T04:47:33.703Z,1010.62
2018-07-23T04:48:14.257Z,1010.62
2018-07-23T04:48:54.807Z,1010.61
2018-07-23T04:49:35.384Z,1010.64
2018-07-23T04:50:15.937Z,1010.63
2018-07-23T04:50:56.516Z,1010.64
2018-07-23T04:51:37.083Z,1010.66
2018-07-23T04:52:17.667Z,1010.68
2018-07-23T04:52:58.190Z,1010.66
2018-07-23T04:53:38.754Z,1010.65
2018-07-23T04:54:19.333Z,1010.65
2018-07-23T04:54:59.948Z,1010.65
2018-07-23T04:55:40.530Z,1010.66
2018-07-23T04:56:21.092Z,1010.66
2018-07-23T04:57:01.663Z,1010.65
2018-07-23T04:57:42.189Z,1010.7
2018-07-23T04:58:22.769Z,1010.67
2018-07-23T04:59:03.338Z,1010.66
2018-07-23T04:59:43.900Z,1010.67
2018-07-23T05:00:24.492Z,1010.69
2018-07-23T05:01:05.078Z,1010.68
2018-07-23T05:01:45.633Z,1010.72
2018-07-23T05:02:26.185Z,1010.66
2018-07-23T05:03:06.754Z,1010.7
2018-07-23T05:03:47.327Z,1010.68
2018-07-23T05:04:27.901Z,1010.72
2018-07-23T05:05:08.465Z,1010.7
2018-07-23T05:05:49.051Z,1010.72
2018-07-23T05:06:29.631Z,1010.73
2018-07-23T05:07:10.194Z,1010.69
2018-07-23T05:07:50.762Z,1010.72
2018-07-23T05:08:31.319Z,1010.7
2018-07-23T05:09:11.885Z,1010.67
2018-07-23T05:09:52.446Z,1010.7
2018-07-23T05:10:33.012Z,1010.66
2018-07-23T05:11:13.575Z,1010.69
2018-07-23T05:11:54.155Z,1010.71
2018-07-23T05:12:34.716Z,1010.68
2018-07-23T05:13:15.286Z,1010.68
2018-07-23T05:13:55.851Z,1010.67
2018-07-23T05:14:36.411Z,1010.68
2018-07-23T05:15:16.963Z,1010.69
2018-07-23T05:15:57.521Z,1010.69
2018-07-23T05:16:38.074Z,1010.66
2018-07-23T05:17:18.665Z,1010.68
2018-07-23T05:17:59.252Z,1010.65
2018-07-23T05:18:39.843Z,1010.66
2018-07-23T05:19:20.410Z,1010.67
2018-07-23T05:20:00.965Z,1010.64
2018-07-23T05:20:41.536Z,1010.63
2018-07-23T05:21:22.109Z,1010.64
2018-07-23T05:22:02.672Z,1010.66
2018-07-23T05:22:43.247Z,1010.64
2018-07-23T05:23:23.811Z,1010.64
2018-07-23T05:24:04.381Z,1010.64
2018-07-23T05:24:44.935Z,1010.65
2018-07-23T05:25:25.484Z,1010.67
2018-07-23T05:26:06.058Z,1010.64
2018-07-23T05:26:46.588Z,1010.68
2018-07-23T05:27:27.164Z,1010.72
2018-07-23T05:28:07.753Z,1010.72
2018-07-23T05:28:48.328Z,1010.66
2018-07-23T05:29:28.897Z,1010.68
2018-07-23T05:30:09.470Z,1010.72
2018-07-23T05:30:50.045Z,1010.68
2018-07-23T05:31:30.612Z,1010.67
2018-07-23T05:32:11.224Z,1010.68
2018-07-23T05:32:51.799Z,1010.69
2018-07-23T05:33:32.365Z,1010.71
2018-07-23T05:34:12.944Z,1010.67
2018-07-23T05:34:53.530Z,1010.7
2018-07-23T05:35:34.088Z,1010.69
2018-07-23T05:36:14.651Z,1010.77
2018-07-23T05:36:55.748Z,1010.72
2018-07-23T05:37:36.320Z,1010.74
2018-07-23T05:38:16.901Z,1010.73
2018-07-23T05:38:57.473Z,1010.75
2018-07-23T05:39:38.017Z,1010.82
2018-07-23T05:40:18.645Z,1010.82
2018-07-23T05:40:59.160Z,1010.87
2018-07-23T05:41:39.728Z,1010.89
2018-07-23T05:42:20.289Z,1010.91
2018-07-23T05:43:00.854Z,1010.97
2018-07-23T05:43:41.425Z,1010.92
2018-07-23T05:44:21.981Z,1010.94
2018-07-23T05:45:02.554Z,1010.98
2018-07-23T05:45:43.117Z,1010.99
2018-07-23T05:46:23.679Z,1011.03
2018-07-23T05:47:04.237Z,1011.11
2018-07-23T05:47:44.808Z,1011.08
2018-07-23T05:48:25.380Z,1011.1
2018-07-23T05:49:05.958Z,1011.12
2018-07-23T05:49:46.538Z,1011.11
2018-07-23T05:50:27.156Z,1011.18
2018-07-23T05:51:07.740Z,1011.15
2018-07-23T05:51:48.319Z,1011.16
2018-07-23T05:52:28.901Z,1011.23
2018-07-23T05:53:09.468Z,1011.22
2018-07-23T05:53:50.048Z,1011.28
2018-07-23T05:54:30.623Z,1011.24
2018-07-23T05:55:11.180Z,1011.29
2018-07-23T05:55:51.758Z,1011.31
2018-07-23T05:56:32.320Z,1011.31
2018-07-23T05:57:12.891Z,1011.32
2018-07-23T05:57:53.449Z,1011.37
2018-07-23T05:58:34.005Z,1011.38
2018-07-23T05:59:14.566Z,1011.4
2018-07-23T05:59:55.137Z,1011.46
2018-07-23T06:00:35.719Z,1011.45
2018-07-23T06:01:16.299Z,1011.47
2018-07-23T06:01:56.857Z,1011.55
2018-07-23T06:02:37.431Z,1011.58
2018-07-23T06:03:18.008Z,1011.65
2018-07-23T06:03:58.591Z,1011.71
2018-07-23T06:04:39.192Z,1011.77
2018-07-23T06:05:20.137Z,1011.88
2018-07-23T06:06:00.721Z,1011.9
2018-07-23T06:06:41.372Z,1012.01
2018-07-23T06:07:21.937Z,1012.09
2018-07-23T06:08:02.522Z,1012.18
2018-07-23T06:08:43.101Z,1012.2
2018-07-23T06:09:23.690Z,1012.23
2018-07-23T06:10:04.280Z,1012.23
2018-07-23T06:10:44.836Z,1012.23
2018-07-23T06:11:25.425Z,1012.27
2018-07-23T06:12:06.012Z,1012.26
2018-07-23T06:12:46.590Z,1012.28
2018-07-23T06:13:27.185Z,1012.3
2018-07-23T06:14:07.829Z,1012.36
2018-07-23T06:14:48.391Z,1012.35
2018-07-23T06:15:28.986Z,1012.39
2018-07-23T06:16:09.558Z,1012.39
2018-07-23T06:16:50.159Z,1012.31
2018-07-23T06:17:30.722Z,1012.32
2018-07-23T06:18:11.301Z,1012.22
2018-07-23T06:18:51.869Z,1012.13
2018-07-23T06:19:32.454Z,1011.99
2018-07-23T06:20:13.025Z,1012.01
2018-07-23T06:20:53.599Z,1011.98
2018-07-23T06:21:34.173Z,1011.97
2018-07-23T06:22:14.751Z,1011.95
2018-07-23T06:22:55.321Z,1011.91
2018-07-23T06:23:35.998Z,1011.79
2018-07-23T06:24:16.701Z,1011.63
2018-07-23T06:24:57.310Z,1011.5
2018-07-23T06:25:37.910Z,1011.46
2018-07-23T06:26:18.457Z,1011.42
2018-07-23T06:26:59.067Z,1011.42
2018-07-23T06:27:39.621Z,1011.41
2018-07-23T06:28:20.220Z,1011.52
2018-07-23T06:29:00.768Z,1011.64
2018-07-23T06:29:41.346Z,1011.83
2018-07-23T06:30:21.938Z,1011.93
2018-07-23T06:31:02.496Z,1012
2018-07-23T06:31:43.151Z,1011.93
2018-07-23T06:32:23.698Z,1011.81
2018-07-23T06:33:04.275Z,1011.84
2018-07-23T06:33:44.875Z,1011.84
2018-07-23T06:34:25.436Z,1011.82
2018-07-23T06:35:06.008Z,1011.86
2018-07-23T06:35:46.569Z,1011.78
2018-07-23T06:36:27.129Z,1011.74
2018-07-23T06:37:07.719Z,1011.75
2018-07-23T06:37:48.290Z,1011.89
2018-07-23T06:38:28.863Z,1012.01
2018-07-23T06:39:09.465Z,1012.02
2018-07-23T06:39:50.086Z,1011.9
2018-07-23T06:40:30.682Z,1011.85
2018-07-23T06:41:11.250Z,1011.84
2018-07-23T06:41:51.831Z,1011.86
2018-07-23T06:42:32.406Z,1011.95
2018-07-23T06:43:13.009Z,1011.93
2018-07-23T06:43:53.577Z,1011.91
2018-07-23T06:44:34.227Z,1011.85
2018-07-23T06:45:14.843Z,1011.75
2018-07-23T06:45:55.406Z,1011.59
2018-07-23T06:46:35.992Z,1011.48
2018-07-23T06:47:16.575Z,1011.41
2018-07-23T06:47:57.156Z,1011.36
2018-07-23T06:48:37.728Z,1011.39
2018-07-23T06:49:18.304Z,1011.32
2018-07-23T06:49:58.880Z,1011.26
2018-07-23T06:50:39.449Z,1011.3
2018-07-23T06:51:20.038Z,1011.22
2018-07-23T06:52:00.656Z,1011.23
2018-07-23T06:52:41.270Z,1011.24
2018-07-23T06:53:21.911Z,1011.25
2018-07-23T06:54:02.508Z,1011.18
2018-07-23T06:54:43.075Z,1011.2
2018-07-23T06:55:23.660Z,1011.25
2018-07-23T06:56:04.253Z,1011.21
2018-07-23T06:56:44.837Z,1011.23
2018-07-23T06:57:25.470Z,1011.22
2018-07-23T06:58:06.001Z,1011.24
2018-07-23T06:58:46.583Z,1011.23
2018-07-23T06:59:27.236Z,1011.27
2018-07-23T07:00:07.815Z,1011.22
2018-07-23T07:00:48.384Z,1011.23
2018-07-23T07:01:28.960Z,1011.26
2018-07-23T07:02:09.563Z,1011.28
2018-07-23T07:02:50.120Z,1011.25
2018-07-23T07:03:30.703Z,1011.27
2018-07-23T07:04:11.304Z,1011.27
2018-07-23T07:04:51.898Z,1011.26
2018-07-23T07:05:32.468Z,1011.28
2018-07-23T07:06:13.064Z,1011.26
2018-07-23T07:06:53.645Z,1011.22
2018-07-23T07:07:34.220Z,1011.25
2018-07-23T07:08:14.802Z,1011.25
2018-07-23T07:08:55.392Z,1011.26
2018-07-23T07:09:35.977Z,1011.25
2018-07-23T07:10:16.620Z,1011.26
2018-07-23T07:10:57.207Z,1011.24
2018-07-23T07:11:37.763Z,1011.26
2018-07-23T07:12:18.355Z,1011.26
2018-07-23T07:12:58.941Z,1011.3
2018-07-23T07:13:39.640Z,1011.27
2018-07-23T07:14:20.117Z,1011.3
2018-07-23T07:15:00.708Z,1011.31
2018-07-23T07:15:41.278Z,1011.29
2018-07-23T07:16:21.863Z,1011.32
2018-07-23T07:17:02.429Z,1011.31
2018-07-23T07:17:43.021Z,1011.3
2018-07-23T07:18:23.614Z,1011.32
2018-07-23T07:19:04.244Z,1011.34
2018-07-23T07:19:44.832Z,1011.37
2018-07-23T07:20:25.411Z,1011.35
2018-07-23T07:21:05.992Z,1011.37
2018-07-23T07:21:46.698Z,1011.36
2018-07-23T07:22:27.227Z,1011.35
2018-07-23T07:23:07.887Z,1011.36
2018-07-23T07:23:48.486Z,1011.39
2018-07-23T07:24:29.059Z,1011.33
2018-07-23T07:25:10.417Z,1011.39
2018-07-23T07:25:51.099Z,1011.38
2018-07-23T07:26:31.730Z,1011.4
2018-07-23T07:27:12.240Z,1011.39
2018-07-23T07:27:52.810Z,1011.44
2018-07-23T07:28:33.383Z,1011.41
2018-07-23T07:29:13.962Z,1011.43
2018-07-23T07:29:54.535Z,1011.42
2018-07-23T07:30:35.232Z,1011.45
2018-07-23T07:31:15.829Z,1011.49
2018-07-23T07:31:56.397Z,1011.47
2018-07-23T07:32:36.988Z,1011.52
2018-07-23T07:33:17.535Z,1011.53
2018-07-23T07:33:58.118Z,1011.55
2018-07-23T07:34:38.691Z,1011.59
2018-07-23T07:35:19.270Z,1011.6
2018-07-23T07:35:59.834Z,1011.61
2018-07-23T07:36:40.410Z,1011.58
2018-07-23T07:37:21.005Z,1011.53
2018-07-23T07:38:01.648Z,1011.47
2018-07-23T07:38:42.169Z,1011.5
2018-07-23T07:39:22.737Z,1011.5
2018-07-23T07:40:03.322Z,1011.49
2018-07-23T07:40:43.911Z,1011.46
2018-07-23T07:41:24.482Z,1011.46
2018-07-23T07:42:05.067Z,1011.46
2018-07-23T07:42:45.674Z,1011.48
2018-07-23T07:43:26.277Z,1011.39
2018-07-23T07:44:06.867Z,1011.42
2018-07-23T07:44:47.450Z,1011.43
2018-07-23T07:45:28.025Z,1011.39
2018-07-23T07:46:08.597Z,1011.4
2018-07-23T07:46:49.150Z,1011.39
2018-07-23T07:47:29.743Z,1011.43
2018-07-23T07:48:10.313Z,1011.4
2018-07-23T07:48:50.899Z,1011.47
2018-07-23T07:49:31.472Z,1011.47
2018-07-23T07:50:12.060Z,1011.48
2018-07-23T07:50:52.641Z,1011.45
2018-07-23T07:51:33.259Z,1011.45
2018-07-23T07:52:13.840Z,1011.47
2018-07-23T07:52:54.446Z,1011.47
2018-07-23T07:53:35.024Z,1011.46
2018-07-23T07:54:15.602Z,1011.44
2018-07-23T07:54:56.200Z,1011.45
2018-07-23T07:55:36.784Z,1011.46
2018-07-23T07:56:17.405Z,1011.44
2018-07-23T07:56:57.958Z,1011.45
2018-07-23T07:57:38.558Z,1011.4
2018-07-23T07:58:19.148Z,1011.4
2018-07-23T07:58:59.731Z,1011.44
2018-07-23T07:59:40.310Z,1011.4
2018-07-23T08:00:20.888Z,1011.38
2018-07-23T08:01:01.455Z,1011.39
2018-07-23T08:01:42.042Z,1011.35
2018-07-23T08:02:22.628Z,1011.35
2018-07-23T08:03:03.191Z,1011.39
2018-07-23T08:03:43.776Z,1011.38
2018-07-23T08:04:24.354Z,1011.37
2018-07-23T08:05:04.922Z,1011.35
2018-07-23T08:05:45.485Z,1011.35
2018-07-23T08:06:26.094Z,1011.29
2018-07-23T08:07:06.675Z,1011.29
2018-07-23T08:07:47.248Z,1011.26
2018-07-23T08:08:27.831Z,1011.29
2018-07-23T08:09:08.407Z,1011.31
2018-07-23T08:09:48.972Z,1011.29
2018-07-23T08:10:29.553Z,1011.3
2018-07-23T08:11:10.135Z,1011.37
2018-07-23T08:11:50.722Z,1011.4
2018-07-23T08:12:31.337Z,1011.33